Terminal Aerodrome Forecast
Issued by NWS Cleveland, OH

Home | Current Version | Previous Version | Text Only | Print | Product List | Glossary On
Versions: 1 2 3 4 5 6 7 8 9 10 11 12 13 14 15
211
FTUS41 KCLE 261733
TAFERI
TAF
KERI 261733Z 2618/2718 05010KT P6SM FEW035 BKN250
     FM270200 16011KT P6SM BKN250
     FM271000 16015G22KT P6SM SCT250=

USA.gov is the U.S. government's official web portal to all federal, state and local government web resources and services.